Time;durP1;ratioP1;P1;durP2;ratioP2;P2;SDS_P1;SDS_P2;PMS_P1;PMS_P2;Temp;Humidity;BMP_temperature;BMP_pressure;BME280_temperature;BME280_humidity;BME280_pressure;Samples;Min_cycle;Max_cycle;Signal;HPM_P1;HPM_P2
2022/12/24 00:01:23;;;;;;;12.77;5.37;;;10.60;99.90;;;;;;5071814;28;20257;-64
2022/12/24 00:03:48;;;;;;;8.50;5.97;;;10.50;99.90;;;;;;5071674;28;20209;-63
2022/12/24 00:06:22;;;;;;;7.20;6.30;;;10.50;99.90;;;;;;5071495;28;20181;-63
2022/12/24 00:08:50;;;;;;;11.53;5.60;;;10.50;99.90;;;;;;5072121;28;20253;-63
2022/12/24 00:11:15;;;;;;;9.67;6.13;;;10.40;99.90;;;;;;5071437;28;20201;-63
2022/12/24 00:13:41;;;;;;;5.77;5.27;;;10.40;99.90;;;;;;5071933;28;20707;-63
2022/12/24 00:16:07;;;;;;;14.90;6.27;;;10.40;99.90;;;;;;5071873;28;20194;-63
2022/12/24 00:18:32;;;;;;;16.97;6.43;;;10.30;99.90;;;;;;5072065;28;20249;-63
2022/12/24 00:20:58;;;;;;;12.03;6.13;;;10.30;99.90;;;;;;5071825;28;20530;-63
2022/12/24 00:23:23;;;;;;;13.37;6.03;;;10.20;99.90;;;;;;5071992;28;20243;-63
2022/12/24 00:25:49;;;;;;;18.37;6.03;;;10.20;99.90;;;;;;5071447;28;20643;-61
2022/12/24 00:28:21;;;;;;;5.60;4.73;;;10.20;99.90;;;;;;5071972;28;20181;-63
2022/12/24 00:30:46;;;;;;;8.87;8.07;;;10.20;99.90;;;;;;5071325;28;20542;-64
2022/12/24 00:33:12;;;;;;;13.17;5.80;;;10.30;99.90;;;;;;5071689;28;20213;-63
2022/12/24 00:35:39;;;;;;;11.93;6.30;;;10.40;99.90;;;;;;5053811;28;20170;-64
2022/12/24 00:38:06;;;;;;;15.70;5.77;;;10.50;99.90;;;;;;5071538;28;20247;-64
2022/12/24 00:40:32;;;;;;;12.73;5.60;;;10.60;99.90;;;;;;5071299;28;20180;-63
2022/12/24 00:42:58;;;;;;;15.17;6.13;;;10.70;99.90;;;;;;5053757;28;20675;-63
2022/12/24 00:45:26;;;;;;;15.90;5.93;;;10.70;99.90;;;;;;5071450;28;20182;-63
2022/12/24 00:47:52;;;;;;;8.70;5.13;;;10.80;99.90;;;;;;5071637;28;20257;-63
2022/12/24 00:50:18;;;;;;;11.53;6.53;;;10.80;99.90;;;;;;5071349;28;20351;-66
2022/12/24 00:52:43;;;;;;;8.73;4.93;;;10.90;99.90;;;;;;5071617;28;20177;-65
2022/12/24 00:55:09;;;;;;;16.47;6.37;;;10.90;99.90;;;;;;5071249;28;20253;-63
2022/12/24 00:57:34;;;;;;;14.27;6.30;;;10.90;99.90;;;;;;5071446;28;20174;-63
2022/12/24 01:00:00;;;;;;;10.33;4.77;;;10.90;99.90;;;;;;5070512;28;20256;-63
2022/12/24 01:02:26;;;;;;;6.73;4.90;;;11.00;99.90;;;;;;5071851;28;20166;-65
2022/12/24 01:05:09;;;;;;;10.60;5.63;;;11.00;99.90;;;;;;5071347;28;20216;-63
2022/12/24 01:07:37;;;;;;;9.23;5.13;;;11.00;99.90;;;;;;5071453;28;20207;-64
2022/12/24 01:10:04;;;;;;;20.43;5.20;;;10.90;99.90;;;;;;5070778;28;20178;-63
2022/12/24 01:12:29;;;;;;;10.33;5.63;;;10.90;99.90;;;;;;5071483;28;20170;-63
2022/12/24 01:14:55;;;;;;;24.47;6.50;;;10.90;99.90;;;;;;5071167;28;20209;-63
2022/12/24 01:17:20;;;;;;;12.50;6.03;;;10.90;99.90;;;;;;5072702;28;20171;-66
2022/12/24 01:19:46;;;;;;;18.87;5.30;;;10.90;99.90;;;;;;5074705;28;20589;-63
2022/12/24 01:22:12;;;;;;;11.27;5.30;;;10.80;99.90;;;;;;5075494;28;20544;-63
2022/12/24 01:24:40;;;;;;;9.07;5.33;;;10.80;99.90;;;;;;5075077;28;20190;-63
2022/12/24 01:27:05;;;;;;;10.30;5.50;;;10.80;99.90;;;;;;5075442;28;20185;-63
2022/12/24 01:29:31;;;;;;;16.03;7.13;;;10.80;99.90;;;;;;5074632;28;20171;-63
2022/12/24 01:31:57;;;;;;;19.57;6.53;;;10.80;99.90;;;;;;5075299;28;20212;-64
2022/12/24 01:34:22;;;;;;;10.40;6.17;;;10.90;99.90;;;;;;5074932;28;20275;-64
2022/12/24 01:36:48;;;;;;;14.47;5.97;;;10.80;99.90;;;;;;5074983;28;20181;-63
2022/12/24 01:39:13;;;;;;;7.50;4.63;;;10.90;99.90;;;;;;5074551;28;20174;-64
2022/12/24 01:44:32;;;;;;;12.37;6.53;;;10.80;99.90;;;;;;5074881;28;20740;-64
2022/12/24 01:47:10;;;;;;;8.67;4.80;;;10.70;99.90;;;;;;5074768;28;20635;-64
2022/12/24 01:49:38;;;;;;;10.00;5.70;;;10.70;99.90;;;;;;5074413;28;20612;-64
2022/12/24 01:52:13;;;;;;;15.33;5.57;;;10.60;99.90;;;;;;5074669;28;20616;-64
2022/12/24 01:55:02;;;;;;;7.57;5.93;;;10.60;99.90;;;;;;5074484;28;20561;-64
2022/12/24 01:57:34;;;;;;;9.23;4.90;;;10.50;99.90;;;;;;5074668;28;20606;-64
2022/12/24 02:00:04;;;;;;;23.23;5.83;;;10.50;99.90;;;;;;5073668;28;20170;-64
2022/12/24 02:02:32;;;;;;;7.73;4.83;;;10.40;99.90;;;;;;5074657;28;20680;-63
2022/12/24 02:05:26;;;;;;;7.37;6.17;;;10.40;99.90;;;;;;5074423;28;20236;-63
2022/12/24 02:07:52;;;;;;;8.93;4.53;;;10.40;99.90;;;;;;5074148;28;20185;-63
2022/12/24 02:10:18;;;;;;;7.60;5.13;;;10.40;99.90;;;;;;5074099;28;20197;-63
2022/12/24 02:12:45;;;;;;;13.93;6.50;;;10.30;99.90;;;;;;5074026;28;20177;-63
2022/12/24 02:15:13;;;;;;;9.83;5.23;;;10.30;99.90;;;;;;5074392;28;20174;-63
2022/12/24 02:17:39;;;;;;;10.73;5.60;;;10.30;99.90;;;;;;5073868;28;20181;-64
2022/12/24 02:20:26;;;;;;;8.83;6.27;;;10.20;99.90;;;;;;5073719;28;20604;-64
2022/12/24 02:23:16;;;;;;;9.07;6.53;;;10.20;99.90;;;;;;5074110;28;20178;-63
2022/12/24 02:26:19;;;;;;;9.17;6.63;;;10.20;99.90;;;;;;5073841;28;20200;-64
2022/12/24 02:29:06;;;;;;;6.63;6.23;;;10.20;99.90;;;;;;5073454;28;20189;-64
2022/12/24 02:31:43;;;;;;;14.07;5.57;;;10.20;99.90;;;;;;5071397;28;20240;-64
2022/12/24 02:34:24;;;;;;;6.73;5.30;;;10.30;99.90;;;;;;5033383;22;20656;-65
2022/12/24 02:36:56;;;;;;;12.67;5.77;;;10.30;99.90;;;;;;4972292;28;20175;-64
2022/12/24 02:39:30;;;;;;;7.67;6.30;;;10.40;99.90;;;;;;4990113;28;20181;-64
2022/12/24 02:42:06;;;;;;;10.17;6.10;;;10.50;99.90;;;;;;4991322;28;20169;-65
2022/12/24 02:44:50;;;;;;;10.23;6.97;;;10.50;99.90;;;;;;5021688;28;20194;-65
2022/12/24 02:47:19;;;;;;;9.30;6.00;;;10.60;99.90;;;;;;5054955;28;20177;-65
2022/12/24 02:49:47;;;;;;;8.60;6.00;;;10.70;99.90;;;;;;5073440;28;20530;-65
2022/12/24 02:52:37;;;;;;;11.43;6.33;;;10.80;99.90;;;;;;5073265;28;20209;-64
2022/12/24 02:55:31;;;;;;;9.03;8.23;;;10.90;99.90;;;;;;5053591;28;20663;-65
2022/12/24 02:58:22;;;;;;;5.80;5.30;;;10.90;99.90;;;;;;5057860;28;20547;-63
2022/12/24 03:01:16;;;;;;;8.87;6.23;;;10.90;99.90;;;;;;5073023;28;20170;-65
2022/12/24 03:03:41;;;;;;;5.57;5.17;;;11.00;99.90;;;;;;5072952;28;20231;-65
2022/12/24 03:06:14;;;;;;;7.20;6.47;;;11.00;99.90;;;;;;5072655;28;20178;-64
2022/12/24 03:08:54;;;;;;;8.57;5.50;;;11.00;99.90;;;;;;5072929;28;20178;-65
2022/12/24 03:11:19;;;;;;;8.67;4.67;;;11.10;99.90;;;;;;5072882;28;20193;-65
2022/12/24 03:13:47;;;;;;;5.40;4.90;;;11.10;99.90;;;;;;5072659;28;20209;-65
2022/12/24 03:16:16;;;;;;;14.70;6.63;;;11.10;99.90;;;;;;5073128;28;20250;-65
2022/12/24 03:18:46;;;;;;;6.83;5.57;;;11.10;99.90;;;;;;5072846;28;20636;-64
2022/12/24 03:21:19;;;;;;;12.33;5.37;;;11.10;99.90;;;;;;5072682;28;20696;-65
2022/12/24 03:23:44;;;;;;;5.43;4.93;;;11.00;99.90;;;;;;5072512;28;20190;-65
2022/12/24 03:26:13;;;;;;;4.60;4.30;;;11.00;99.90;;;;;;5072821;28;20188;-65
2022/12/24 03:28:40;;;;;;;9.87;5.47;;;10.90;99.90;;;;;;5072437;28;20174;-65
2022/12/24 03:31:08;;;;;;;6.70;4.97;;;10.90;99.90;;;;;;5088210;28;20698;-64
2022/12/24 03:33:34;;;;;;;7.67;5.70;;;10.80;99.90;;;;;;5066593;28;20285;-65
2022/12/24 03:35:59;;;;;;;6.23;5.17;;;10.70;99.90;;;;;;5052614;28;20250;-64
2022/12/24 03:38:25;;;;;;;10.07;4.57;;;10.60;99.90;;;;;;5056125;28;20193;-64
2022/12/24 03:40:51;;;;;;;10.43;5.77;;;10.60;99.90;;;;;;5071122;28;20182;-65
2022/12/24 03:43:16;;;;;;;6.73;4.80;;;10.60;99.90;;;;;;5072431;28;20271;-65
2022/12/24 03:45:42;;;;;;;6.90;4.37;;;10.50;99.90;;;;;;5072423;28;20174;-65
2022/12/24 03:48:07;;;;;;;6.83;6.10;;;10.50;99.90;;;;;;5053826;28;20182;-65
2022/12/24 03:50:33;;;;;;;5.57;4.80;;;10.40;99.90;;;;;;5054874;28;20213;-65
2022/12/24 03:52:59;;;;;;;6.23;5.80;;;10.40;99.90;;;;;;5072376;28;20173;-65
2022/12/24 03:55:24;;;;;;;6.57;6.03;;;10.30;99.90;;;;;;5070985;28;20182;-65
2022/12/24 03:57:50;;;;;;;5.30;4.90;;;10.20;99.90;;;;;;5052089;28;20163;-65
2022/12/24 04:00:16;;;;;;;6.53;6.07;;;10.20;99.90;;;;;;5051981;28;20233;-64
2022/12/24 04:02:42;;;;;;;6.10;4.70;;;10.30;99.90;;;;;;5071303;28;20178;-64
2022/12/24 04:05:12;;;;;;;5.10;4.70;;;10.30;99.90;;;;;;5065782;28;20244;-65
2022/12/24 04:07:38;;;;;;;5.03;4.60;;;10.30;99.90;;;;;;5052155;28;20659;-64
2022/12/24 04:10:04;;;;;;;8.23;6.07;;;10.30;99.90;;;;;;5061980;28;20209;-65
2022/12/24 04:12:29;;;;;;;6.63;4.73;;;10.30;99.90;;;;;;5072059;28;20520;-65
2022/12/24 04:14:55;;;;;;;7.93;4.90;;;10.30;99.90;;;;;;5063084;28;20195;-65
2022/12/24 04:17:20;;;;;;;5.13;4.73;;;10.40;99.90;;;;;;5051954;28;20162;-64
2022/12/24 04:19:46;;;;;;;7.83;4.67;;;10.40;99.90;;;;;;5057890;28;20199;-65
2022/12/24 04:22:11;;;;;;;4.57;4.37;;;10.40;99.90;;;;;;5071987;28;20635;-65
2022/12/24 04:24:37;;;;;;;5.30;5.00;;;10.40;99.90;;;;;;5066584;28;20194;-65
2022/12/24 04:27:03;;;;;;;6.90;5.03;;;10.40;99.90;;;;;;5051809;28;20170;-65
2022/12/24 04:29:28;;;;;;;5.93;5.40;;;10.40;99.90;;;;;;5054102;28;20688;-65
2022/12/24 04:31:54;;;;;;;7.60;6.17;;;10.40;99.90;;;;;;5071695;28;20198;-65
2022/12/24 04:34:19;;;;;;;5.70;5.17;;;10.40;99.90;;;;;;5070679;28;20205;-65
2022/12/24 04:36:45;;;;;;;6.73;5.43;;;10.40;99.90;;;;;;5071278;28;20178;-65
2022/12/24 04:39:10;;;;;;;6.13;5.10;;;10.50;99.90;;;;;;5071630;28;20194;-65
2022/12/24 04:41:36;;;;;;;9.80;5.60;;;10.50;99.90;;;;;;5052171;28;20716;-65
2022/12/24 04:44:01;;;;;;;6.93;4.60;;;10.50;99.90;;;;;;5051812;28;20202;-65
2022/12/24 04:46:32;;;;;;;5.83;5.17;;;10.40;99.90;;;;;;5051740;28;20265;-64
2022/12/24 04:48:58;;;;;;;5.63;5.27;;;10.40;99.90;;;;;;5051788;28;20182;-64
2022/12/24 04:51:25;;;;;;;9.97;4.70;;;10.30;99.90;;;;;;5066800;28;20226;-65
2022/12/24 04:53:51;;;;;;;12.97;5.03;;;10.30;99.90;;;;;;5071581;28;20280;-65
2022/12/24 04:56:28;;;;;;;5.57;5.17;;;10.20;99.90;;;;;;5056868;28;20174;-65
2022/12/24 04:58:54;;;;;;;9.47;5.70;;;10.20;99.90;;;;;;5051544;28;20178;-64
2022/12/24 05:01:23;;;;;;;12.70;5.27;;;10.20;99.90;;;;;;5065163;28;20171;-65
2022/12/24 05:03:49;;;;;;;5.17;4.77;;;10.20;99.90;;;;;;5059840;28;20198;-65
2022/12/24 05:06:19;;;;;;;5.67;5.10;;;10.30;99.90;;;;;;5051558;28;20171;-65
2022/12/24 05:08:45;;;;;;;5.87;5.37;;;10.30;99.90;;;;;;5061007;28;20174;-64
2022/12/24 05:11:14;;;;;;;8.23;5.30;;;10.40;99.90;;;;;;5071030;28;20209;-65
2022/12/24 05:13:41;;;;;;;7.27;4.90;;;10.40;99.90;;;;;;5070983;28;20186;-65
2022/12/24 05:16:08;;;;;;;5.37;5.00;;;10.40;99.90;;;;;;5071377;28;20170;-65
2022/12/24 05:18:33;;;;;;;8.77;5.33;;;10.40;99.90;;;;;;5070955;28;20166;-65
2022/12/24 05:20:59;;;;;;;5.57;5.17;;;10.40;99.90;;;;;;5071241;28;20581;-65
2022/12/24 05:26:25;;;;;;;9.30;6.43;;;10.30;99.90;;;;;;5071265;28;20180;-65
2022/12/24 05:28:53;;;;;;;8.83;5.90;;;10.30;99.90;;;;;;5070893;28;20189;-65
2022/12/24 05:31:20;;;;;;;6.80;6.03;;;10.30;99.90;;;;;;5071038;28;20220;-65
2022/12/24 05:33:46;;;;;;;16.13;5.73;;;10.30;99.90;;;;;;5070553;28;20209;-64
2022/12/24 05:36:13;;;;;;;6.03;5.40;;;10.30;99.90;;;;;;5071207;28;20249;-65
2022/12/24 05:38:38;;;;;;;8.53;5.80;;;10.40;99.90;;;;;;5070815;28;20184;-64
2022/12/24 05:41:05;;;;;;;8.83;6.00;;;10.40;99.90;;;;;;5070917;28;20256;-65
2022/12/24 05:43:30;;;;;;;7.30;6.13;;;10.50;99.90;;;;;;5070482;28;20228;-64
2022/12/24 05:46:01;;;;;;;6.63;6.13;;;10.50;99.90;;;;;;5070981;28;20588;-65
2022/12/24 05:48:27;;;;;;;12.27;5.43;;;10.60;99.90;;;;;;5070664;28;20261;-65
2022/12/24 05:50:53;;;;;;;7.93;5.13;;;10.60;99.90;;;;;;5070608;28;20281;-64
2022/12/24 05:53:19;;;;;;;6.80;5.60;;;10.70;99.90;;;;;;5070595;28;20186;-66
2022/12/24 05:55:45;;;;;;;5.67;5.10;;;10.70;99.90;;;;;;5070837;28;20257;-66
2022/12/24 05:58:11;;;;;;;10.50;5.23;;;10.70;99.90;;;;;;5070741;28;20249;-65
2022/12/24 06:00:37;;;;;;;10.63;6.73;;;10.70;99.90;;;;;;5070581;28;20486;-66
2022/12/24 06:03:02;;;;;;;10.53;6.00;;;10.70;99.90;;;;;;5071318;28;20186;-65
2022/12/24 06:05:29;;;;;;;14.90;7.70;;;10.80;99.90;;;;;;5074205;28;20220;-65
2022/12/24 06:07:54;;;;;;;7.90;6.23;;;10.70;99.90;;;;;;5074288;28;20227;-65
2022/12/24 06:10:20;;;;;;;7.17;5.80;;;10.70;99.90;;;;;;5073880;28;20177;-65
2022/12/24 06:12:45;;;;;;;9.27;5.17;;;10.70;99.90;;;;;;5074202;28;20658;-65
2022/12/24 06:15:11;;;;;;;5.90;5.40;;;10.70;99.90;;;;;;5074034;28;20197;-66
2022/12/24 06:17:37;;;;;;;8.03;7.47;;;10.60;99.90;;;;;;5074171;28;20625;-66
2022/12/24 06:20:03;;;;;;;7.03;6.33;;;10.60;99.90;;;;;;5073713;28;20189;-66
2022/12/24 06:22:28;;;;;;;9.73;5.93;;;10.60;99.90;;;;;;5074655;28;20175;-65
2022/12/24 06:24:54;;;;;;;14.57;6.43;;;10.50;99.90;;;;;;5074084;28;20202;-65
2022/12/24 06:27:20;;;;;;;15.80;6.90;;;10.50;99.90;;;;;;5074135;28;20177;-65
2022/12/24 06:29:45;;;;;;;10.37;6.27;;;10.50;99.90;;;;;;5073477;28;20178;-64
2022/12/24 06:32:11;;;;;;;8.43;5.30;;;10.50;99.90;;;;;;5073907;28;20202;-65
2022/12/24 06:34:38;;;;;;;6.03;5.53;;;10.50;99.90;;;;;;5073415;28;20705;-66
2022/12/24 06:37:03;;;;;;;7.70;5.87;;;10.50;99.90;;;;;;5074112;28;20167;-65
2022/12/24 06:39:29;;;;;;;17.87;7.20;;;10.50;99.90;;;;;;5073897;28;20170;-66
2022/12/24 06:41:55;;;;;;;10.53;6.00;;;10.50;99.90;;;;;;5074441;28;20244;-65
2022/12/24 06:44:20;;;;;;;9.93;6.10;;;10.50;99.90;;;;;;5073710;28;20202;-66
2022/12/24 06:46:46;;;;;;;7.93;7.03;;;10.50;99.90;;;;;;5073707;28;20643;-66
2022/12/24 06:49:11;;;;;;;12.17;5.87;;;10.50;99.90;;;;;;5073314;28;20338;-65
2022/12/24 06:51:37;;;;;;;6.93;5.40;;;10.50;99.90;;;;;;5073411;28;20202;-65
2022/12/24 06:54:03;;;;;;;6.10;5.63;;;10.50;99.90;;;;;;5073175;28;20256;-65
2022/12/24 06:56:29;;;;;;;15.50;7.47;;;10.60;99.90;;;;;;5073573;28;20178;-65
2022/12/24 06:58:54;;;;;;;8.60;6.37;;;10.60;99.90;;;;;;5073154;28;20181;-65
2022/12/24 07:01:23;;;;;;;10.33;6.27;;;10.70;99.90;;;;;;5073038;28;20659;-65
2022/12/24 07:03:49;;;;;;;8.13;5.73;;;10.70;99.90;;;;;;5071544;28;20284;-65
2022/12/24 07:06:23;;;;;;;8.07;7.63;;;10.60;99.90;;;;;;5073332;28;20629;-64
2022/12/24 07:08:49;;;;;;;9.73;6.23;;;10.60;99.90;;;;;;5064445;28;20248;-65
2022/12/24 07:11:15;;;;;;;6.63;5.60;;;10.70;99.90;;;;;;5052938;28;20273;-66
2022/12/24 07:13:41;;;;;;;21.43;8.33;;;10.60;99.90;;;;;;5059656;28;20189;-65
2022/12/24 07:16:07;;;;;;;6.80;6.10;;;10.70;99.90;;;;;;5073089;28;20224;-64
2022/12/24 07:18:32;;;;;;;17.77;7.13;;;10.60;99.90;;;;;;5067649;28;20179;-64
2022/12/24 07:20:58;;;;;;;7.70;7.07;;;10.60;99.90;;;;;;5052765;28;20175;-64
2022/12/24 07:23:24;;;;;;;12.07;5.27;;;10.70;99.90;;;;;;5056020;28;20206;-64
2022/12/24 07:25:50;;;;;;;13.70;6.57;;;10.70;99.90;;;;;;5072802;28;20253;-63
2022/12/24 07:28:16;;;;;;;16.87;6.13;;;10.70;99.90;;;;;;5072704;28;20178;-64
2022/12/24 07:30:41;;;;;;;11.50;6.70;;;10.60;99.90;;;;;;5072354;28;20190;-64
2022/12/24 07:33:07;;;;;;;10.33;7.00;;;10.60;99.90;;;;;;5072375;28;20181;-65
2022/12/24 07:35:33;;;;;;;13.97;5.67;;;10.50;99.90;;;;;;5072653;28;20213;-65
2022/12/24 07:38:00;;;;;;;9.47;5.30;;;10.40;99.90;;;;;;5072185;28;20186;-65
2022/12/24 07:40:25;;;;;;;8.70;6.27;;;10.50;99.90;;;;;;5071817;28;20184;-64
2022/12/24 07:42:51;;;;;;;12.33;6.80;;;10.40;99.90;;;;;;5072442;28;20170;-65
2022/12/24 07:45:17;;;;;;;10.10;5.93;;;10.40;99.90;;;;;;5072075;28;20198;-65
2022/12/24 07:47:42;;;;;;;14.17;7.07;;;10.40;99.90;;;;;;5071048;28;20680;-64
2022/12/24 07:50:08;;;;;;;14.37;6.57;;;10.40;99.90;;;;;;5070414;28;20188;-64
2022/12/24 07:52:33;;;;;;;9.30;6.77;;;10.40;99.90;;;;;;5072037;28;20568;-65
2022/12/24 07:54:59;;;;;;;11.53;6.17;;;10.40;99.90;;;;;;5071891;28;20205;-65
2022/12/24 07:57:25;;;;;;;15.23;6.90;;;10.50;99.90;;;;;;5072491;28;20212;-65
2022/12/24 07:59:50;;;;;;;15.70;6.77;;;10.50;99.90;;;;;;5082436;28;20178;-64
2022/12/24 08:02:16;;;;;;;11.83;6.33;;;10.50;99.90;;;;;;5072073;28;20593;-64
2022/12/24 08:04:41;;;;;;;10.60;5.77;;;10.50;99.90;;;;;;5071458;28;20233;-64
2022/12/24 08:07:07;;;;;;;8.40;6.43;;;10.60;99.90;;;;;;5072068;28;20546;-65
2022/12/24 08:09:34;;;;;;;11.27;6.53;;;10.70;99.90;;;;;;5071451;28;20244;-64
2022/12/24 08:12:01;;;;;;;14.90;6.53;;;10.80;99.90;;;;;;5071874;28;20230;-64
2022/12/24 08:14:28;;;;;;;5.57;4.97;;;10.90;99.90;;;;;;5071507;28;20610;-65
2022/12/24 08:16:53;;;;;;;16.83;5.00;;;11.00;99.90;;;;;;5071895;28;20240;-64
2022/12/24 08:19:19;;;;;;;5.60;5.10;;;11.00;99.90;;;;;;5071493;28;20235;-65
2022/12/24 08:21:45;;;;;;;10.80;5.50;;;11.10;99.90;;;;;;5071593;28;20269;-65
2022/12/24 08:24:10;;;;;;;13.40;6.33;;;11.10;99.90;;;;;;5071378;28;20197;-64
2022/12/24 08:26:36;;;;;;;17.10;7.57;;;11.10;99.90;;;;;;5071110;28;20205;-64
2022/12/24 08:29:03;;;;;;;21.07;6.70;;;11.10;99.90;;;;;;5061833;28;20179;-65
2022/12/24 08:31:29;;;;;;;14.23;7.03;;;11.20;99.90;;;;;;5054689;28;20209;-65
2022/12/24 08:33:54;;;;;;;22.00;6.90;;;11.20;99.90;;;;;;5085731;28;20210;-64
2022/12/24 08:36:20;;;;;;;13.37;5.97;;;11.20;99.90;;;;;;5062941;28;20198;-64
2022/12/24 08:38:46;;;;;;;15.97;6.03;;;11.20;99.90;;;;;;5067969;28;20191;-64
2022/12/24 08:41:12;;;;;;;15.00;6.63;;;11.20;99.90;;;;;;5071199;28;20674;-64
2022/12/24 08:43:37;;;;;;;17.00;6.70;;;11.20;99.90;;;;;;5071173;28;20281;-64
2022/12/24 08:46:04;;;;;;;8.13;6.17;;;11.20;99.90;;;;;;5071481;28;20174;-64
2022/12/24 08:48:31;;;;;;;9.60;5.90;;;11.20;99.90;;;;;;5071610;28;20174;-64
2022/12/24 08:50:56;;;;;;;6.47;5.97;;;11.30;99.90;;;;;;5069115;28;20213;-64
2022/12/24 08:53:22;;;;;;;9.83;8.47;;;11.30;99.90;;;;;;5070239;28;20592;-64
2022/12/24 08:55:48;;;;;;;6.80;6.30;;;11.30;99.90;;;;;;5071453;28;20170;-64
2022/12/24 08:58:13;;;;;;;13.03;6.40;;;11.20;99.90;;;;;;5071044;28;20178;-64
2022/12/24 09:00:39;;;;;;;17.57;6.33;;;11.20;99.90;;;;;;5070945;28;20232;-64
2022/12/24 09:03:05;;;;;;;9.07;6.97;;;11.10;99.90;;;;;;5071299;28;20261;-64
2022/12/24 09:05:30;;;;;;;12.90;6.23;;;11.10;99.90;;;;;;5071340;28;20166;-65
2022/12/24 09:07:56;;;;;;;17.83;6.13;;;11.10;99.90;;;;;;5070801;28;20186;-65
2022/12/24 09:10:22;;;;;;;11.67;7.47;;;11.10;99.90;;;;;;5071030;28;20178;-65
2022/12/24 09:12:48;;;;;;;13.70;7.40;;;11.00;99.90;;;;;;5070860;28;20182;-64
2022/12/24 09:15:14;;;;;;;13.27;6.53;;;11.10;99.90;;;;;;5059500;28;20631;-65
2022/12/24 09:17:39;;;;;;;6.60;6.07;;;11.10;99.90;;;;;;5070046;28;20535;-65
2022/12/24 09:20:06;;;;;;;15.47;7.53;;;11.10;99.90;;;;;;5070861;28;20193;-65
2022/12/24 09:22:37;;;;;;;13.30;6.43;;;11.10;99.90;;;;;;5071051;28;20181;-65
2022/12/24 09:25:05;;;;;;;15.60;6.33;;;11.20;99.90;;;;;;5071114;28;20194;-64
2022/12/24 09:27:30;;;;;;;16.00;6.80;;;11.10;99.90;;;;;;5070842;28;20170;-64
2022/12/24 09:29:56;;;;;;;14.83;6.40;;;11.10;99.90;;;;;;5070552;28;20639;-65
2022/12/24 09:32:22;;;;;;;10.10;6.03;;;11.10;99.90;;;;;;5071143;28;20585;-64
2022/12/24 09:34:47;;;;;;;5.10;4.90;;;11.00;99.90;;;;;;5070780;28;20205;-65
2022/12/24 09:37:13;;;;;;;11.87;5.93;;;11.00;99.90;;;;;;5070634;28;20696;-64
2022/12/24 09:39:39;;;;;;;18.23;6.63;;;11.00;99.90;;;;;;5073650;28;20549;-64
2022/12/24 09:42:19;;;;;;;9.47;4.90;;;11.00;99.90;;;;;;5074390;28;20663;-64
2022/12/24 09:44:52;;;;;;;9.83;6.33;;;11.10;99.90;;;;;;5074584;28;20277;-64
2022/12/24 09:47:25;;;;;;;22.67;6.40;;;11.20;99.90;;;;;;5074458;28;20574;-64
2022/12/24 09:49:52;;;;;;;12.00;5.00;;;11.30;99.90;;;;;;5072872;28;20655;-64
2022/12/24 09:52:42;;;;;;;6.67;6.00;;;11.40;99.90;;;;;;5079478;28;20212;-64
2022/12/24 09:55:41;;;;;;;9.27;5.50;;;11.50;99.90;;;;;;5079731;28;20559;-65
2022/12/24 09:58:32;;;;;;;7.83;5.10;;;11.50;99.90;;;;;;5068912;28;20261;-65
2022/12/24 10:00:58;;;;;;;8.03;6.10;;;11.60;99.90;;;;;;5059928;28;20774;-65
2022/12/24 10:03:24;;;;;;;9.30;6.43;;;11.60;99.90;;;;;;5073844;28;20202;-64
2022/12/24 10:06:04;;;;;;;14.27;6.37;;;11.70;99.90;;;;;;5072174;28;20614;-65
2022/12/24 10:08:56;;;;;;;9.93;5.83;;;11.70;99.90;;;;;;5064080;28;20240;-64
2022/12/24 10:11:34;;;;;;;8.10;5.80;;;11.70;99.90;;;;;;5064501;28;20680;-64
2022/12/24 10:14:05;;;;;;;15.10;6.37;;;11.70;99.90;;;;;;5054079;28;20221;-65
2022/12/24 10:16:57;;;;;;;11.43;6.50;;;11.80;99.90;;;;;;5067983;28;20170;-65
2022/12/24 10:19:28;;;;;;;8.70;5.77;;;11.90;99.90;;;;;;5072910;28;20174;-65
2022/12/24 10:22:24;;;;;;;8.97;6.40;;;11.90;99.90;;;;;;5071797;28;20264;-65
2022/12/24 10:24:50;;;;;;;10.77;6.07;;;11.90;99.90;;;;;;5073595;28;20285;-65
2022/12/24 10:27:20;;;;;;;9.30;5.60;;;12.00;99.90;;;;;;5073784;28;20261;-65
2022/12/24 10:29:53;;;;;;;12.20;6.07;;;12.10;99.90;;;;;;5073005;28;20213;-65
2022/12/24 10:32:26;;;;;;;12.30;5.37;;;12.10;99.90;;;;;;5073903;28;20251;-64
2022/12/24 10:35:03;;;;;;;14.40;6.27;;;12.20;99.90;;;;;;5073380;28;20711;-65
2022/12/24 10:37:29;;;;;;;16.50;5.77;;;12.20;99.90;;;;;;5073518;28;20561;-65
2022/12/24 10:39:57;;;;;;;12.03;6.10;;;12.20;99.90;;;;;;5073262;28;20197;-64
2022/12/24 10:42:31;;;;;;;14.30;6.77;;;12.30;99.90;;;;;;5073488;28;20577;-64
2022/12/24 10:45:01;;;;;;;12.53;6.00;;;12.20;99.90;;;;;;5073526;28;20200;-64
2022/12/24 10:47:27;;;;;;;26.27;7.03;;;12.20;99.90;;;;;;5073346;28;20186;-66
2022/12/24 10:50:15;;;;;;;10.00;5.57;;;12.10;99.90;;;;;;5072242;28;20269;-64
2022/12/24 10:52:44;;;;;;;13.93;5.23;;;12.10;99.90;;;;;;5073696;28;20174;-64
2022/12/24 10:55:12;;;;;;;13.30;6.87;;;12.10;99.90;;;;;;5071276;28;20209;-64
2022/12/24 10:57:39;;;;;;;15.03;5.30;;;12.10;99.90;;;;;;5072855;28;20182;-64
2022/12/24 11:00:14;;;;;;;16.20;6.23;;;12.10;99.90;;;;;;5072211;28;20547;-64
2022/12/24 11:02:39;;;;;;;20.13;6.10;;;12.10;99.90;;;;;;5072354;28;20244;-65
2022/12/24 11:05:26;;;;;;;10.87;5.23;;;12.10;99.90;;;;;;5072791;28;20297;-65
2022/12/24 11:08:13;;;;;;;16.57;6.43;;;12.10;99.90;;;;;;5071903;28;20189;-65
2022/12/24 11:10:43;;;;;;;5.43;4.93;;;12.00;99.90;;;;;;5070321;28;20197;-65
2022/12/24 11:13:30;;;;;;;14.33;4.87;;;12.10;99.90;;;;;;5072977;28;20643;-64
2022/12/24 11:16:04;;;;;;;9.87;6.30;;;12.20;99.90;;;;;;5071416;28;20170;-64
2022/12/24 11:18:33;;;;;;;9.03;5.70;;;12.30;99.90;;;;;;5072855;28;20165;-64
2022/12/24 11:20:59;;;;;;;11.57;5.53;;;12.30;99.90;;;;;;5072551;28;20173;-65
2022/12/24 11:23:27;;;;;;;10.27;5.90;;;12.40;99.90;;;;;;5072635;28;20213;-64
2022/12/24 11:25:55;;;;;;;8.37;4.70;;;12.40;99.90;;;;;;5070510;28;20213;-64
2022/12/24 11:28:27;;;;;;;9.80;5.33;;;12.50;99.90;;;;;;5072362;28;20184;-65
2022/12/24 11:30:57;;;;;;;15.50;6.07;;;12.50;99.90;;;;;;5071334;28;20252;-64
2022/12/24 11:33:23;;;;;;;10.80;7.20;;;12.50;99.90;;;;;;5072287;28;20220;-65
2022/12/24 11:36:00;;;;;;;7.93;5.57;;;12.50;99.90;;;;;;5072106;28;20190;-65
2022/12/24 11:38:27;;;;;;;8.30;5.37;;;12.50;99.90;;;;;;5071976;28;20184;-65
2022/12/24 11:41:10;;;;;;;8.20;5.40;;;12.40;99.90;;;;;;5072355;28;20174;-65
2022/12/24 11:43:43;;;;;;;9.17;6.80;;;12.40;99.90;;;;;;5072216;28;20206;-64
2022/12/24 11:46:25;;;;;;;17.10;5.83;;;12.40;99.90;;;;;;5088062;28;20174;-64
2022/12/24 11:49:10;;;;;;;8.77;5.90;;;12.50;99.90;;;;;;5057718;28;20583;-64
2022/12/24 11:51:36;;;;;;;13.20;5.90;;;12.70;99.90;;;;;;5052127;28;20202;-64
2022/12/24 11:54:26;;;;;;;15.27;7.30;;;12.90;99.90;;;;;;5066138;28;20609;-65
2022/12/24 11:56:55;;;;;;;15.27;7.30;;;12.80;99.90;;;;;;5051997;28;20163;-64
2022/12/24 11:59:35;;;;;;;14.63;6.60;;;12.80;99.90;;;;;;5067324;28;20237;-64
2022/12/24 12:02:13;;;;;;;9.60;6.10;;;12.80;99.90;;;;;;5071173;28;20316;-64
2022/12/24 12:04:42;;;;;;;16.00;7.33;;;12.70;99.90;;;;;;5071385;28;20224;-64
2022/12/24 12:07:17;;;;;;;10.47;6.67;;;12.70;99.90;;;;;;5071913;28;20181;-64
2022/12/24 12:09:48;;;;;;;13.23;5.40;;;12.50;99.90;;;;;;5071420;28;20170;-64
2022/12/24 12:12:20;;;;;;;11.93;6.53;;;12.40;99.90;;;;;;5071648;28;20236;-65
2022/12/24 12:14:52;;;;;;;17.60;6.33;;;12.30;99.90;;;;;;5071861;28;20198;-64
2022/12/24 12:17:39;;;;;;;12.93;5.77;;;12.50;99.90;;;;;;5072028;28;20198;-64
2022/12/24 12:20:17;;;;;;;19.23;5.83;;;12.60;99.90;;;;;;5071587;28;20513;-64
2022/12/24 12:22:48;;;;;;;8.17;5.27;;;12.80;99.90;;;;;;5071576;28;20459;-64
2022/12/24 12:25:22;;;;;;;11.57;5.97;;;12.90;99.90;;;;;;5071596;28;20268;-65
2022/12/24 12:27:51;;;;;;;10.70;5.33;;;12.90;99.90;;;;;;5071327;28;20178;-65
2022/12/24 12:30:20;;;;;;;6.40;5.53;;;12.80;99.90;;;;;;5069681;28;20250;-65
2022/12/24 12:32:51;;;;;;;14.07;5.43;;;12.70;99.90;;;;;;5071382;28;20181;-65
2022/12/24 12:35:34;;;;;;;9.07;5.57;;;12.50;99.90;;;;;;5080215;28;20274;-65
2022/12/24 12:38:03;;;;;;;8.73;6.43;;;12.40;99.90;;;;;;5071392;28;20232;-64
2022/12/24 12:41:02;;;;;;;12.30;6.33;;;12.30;99.90;;;;;;5071011;28;20190;-66
2022/12/24 12:44:01;;;;;;;16.20;6.80;;;12.20;99.90;;;;;;5071618;28;20605;-65
2022/12/24 12:46:56;;;;;;;12.83;6.50;;;12.20;99.90;;;;;;5071365;28;20196;-65
2022/12/24 12:49:27;;;;;;;10.00;6.20;;;12.20;99.90;;;;;;5071214;28;20166;-64
2022/12/24 12:52:23;;;;;;;7.20;6.17;;;12.20;99.90;;;;;;5062678;28;20206;-64
2022/12/24 12:55:06;;;;;;;9.37;6.30;;;12.10;99.90;;;;;;5071271;28;20193;-65
2022/12/24 12:57:35;;;;;;;15.60;5.67;;;12.20;99.90;;;;;;5071427;28;20166;-64
2022/12/24 13:00:12;;;;;;;15.07;4.87;;;12.40;99.90;;;;;;5071134;28;20162;-64
2022/12/24 13:02:54;;;;;;;4.80;4.20;;;12.70;99.90;;;;;;5069113;28;20196;-65